Saint Charles, MO (63301)

11:56 PM CST on February 09, 2016 (GMT -0600)
New Town St Charles | | Change Station
CLOSE
Current Station
Personal Weather Station
Location: Saint Charles, MO
Elevation: 446 ft
Nearby Weather Stations

Elev 446 ft 38.84 °N, 90.50 °W | Updated 14 minutes ago

Mostly Cloudy
Mostly Cloudy
18.5 °F
Feels Like 7 °F
N
9.4
Wind Variable Wind from NW

Today
High -- | Low -- °F
--% Chance of Precip.
Yesterday
High -- | Low -- °F
Precip. -- in
Pressure 30.16 in
Visibility 10.0 miles
Clouds Overcast 3600 ft
Windchill 7 °F
Dew Point 9 °F
Humidity 66%
Rainfall 0.00 in
Snow Depth Not available.
7:00 AM 5:32 PM
Waxing Crescent, 4% visible
METAR KSET 100454Z AUTO 33020G26KT 10SM OVC036 M07/M13 A3014 RMK AO2 PK WND 32026/0451 SLP211 T10671133 $
Pressure 30.16 in
Visibility 10.0 miles
Clouds Overcast 3600 ft
Windchill 7 °F
Dew Point 9 °F
Humidity 66%
Rainfall 0.00 in
Snow Depth Not available.
7:00 AM 5:32 PM
Waxing Crescent, 4% visible
METAR KSET 100454Z AUTO 33020G26KT 10SM OVC036 M07/M13 A3014 RMK AO2 PK WND 32026/0451 SLP211 T10671133 $

10-Day Weather Forecast

Almanac

Astronomy

Feb. 09, 2016 Rise Set
Actual Time
Civil Twilight
Nautical Twilight
Astronomical Twilight
Moon
Length of Visible Light
Length of Day
Tomorrow will be .
, % of the Moon is Illuminated

Today's Extremes

State Highs State Lows

Community

WunderPhotos

Upload Photos

1,891,823 photos uploaded!

WunderBlog® & News

Nearby

Air Quality

  Air Quality AQ Index Pollutant
Not available.

Snow Depth

Station Depth Elevation

Earthquake Activity

City Distance Mag. Time & Date
Minimum magnitude displayed is 2.5.

Coastal Water Temperatures

Place Temperature

Stations

Nearby Weather Stations

Station Location Temp. Windchill Dew Point Humidity Wind Precip. Elev Updated Type
                   

Watches & Warnings

There are currently no watches in effect.